Ludlow, California
Current Conditions -  °F | °C
As of 3:56 AM on Thursday 29 Jan 2015 (Local Time) from KNXP Reporting Station
Clear Clear  
Wind Chill: 52°   Ceiling: Unl
Heat Index: 52°   Visibility: 10mi
Dew Point: 45°   Wind: 8mph
Humidity: 77%   Direction: 280°W
Pressure: 30.2"   Gusts: NA
Location:  34.72°N, 116.16°W
Report Text: KNXP 291156Z AUTO 28007KT 10SM CLR 11/07 A3020 RMK AO2 SLP205 T01110072 10133 20106 58006 $
Loading
Personal Weather Stations






























Interactive Weather Map New forecast layout! Learn more

10-Day Weather Forecast

Advertisements
Track Severe Weather on mobile